Goldfield, Nevada Weather observations

Data are for observation ending at time listed.
 Day   Time    Ave.   Ave.  Ave.  Vector   Max.   Stn.    Total    Solar   Ave.  
  of    of     Air    Rel.  Wind   Wind    Wind   Baro.  Precip.   Rad.    Soil  
Year   Day     Temp.  Hum.  Speed  Dir.    Gust   Pres.                    Temp. 
2015   (PST)    F      %     mph   deg.    mph     mb.     in.     W/m2     F   
------------------------------------------------------------------------------
 182    5:10   68.8    51    1.8   145      2.8   831.7    0.00      57    81.3
 182    5:20   69.4    50    5.2   124     14.9   832.1    0.00      57    81.2
 182    5:30   71.8    43   11.9   110     19.4   833.0    0.00      40    81.1
 182    5:40   72.6    46   13.3   118     20.8   833.1    0.00      45    81.0
 182    5:50   71.5    50   12.1   130     17.0   833.1    0.00      54    80.9
 182    6:00   71.1    51   10.1   132     14.9   833.1    0.00      69    80.8
 182    6:10   70.8    52    7.6   133     13.2   833.0    0.00      90    80.7
 182    6:20   71.8    49    8.0   165     14.2   832.9    0.00     105    80.6
 182    6:30   72.3    48    8.7   205     12.6   832.9    0.00     118    80.6
 182    6:40   73.4    45    8.3   180     15.4   833.0    0.00     297    80.6
 182    6:50   75.8    41   12.3   186     21.9   832.8    0.00     417    80.5
 182    7:00   75.6    43   18.1   183     26.6   832.8    0.00     314    80.5
 182    7:10   74.4    46   18.5   190     29.9   832.8    0.00     178    80.5
 182    7:20   73.5    48   18.3   187     26.1   832.8    0.00     192    80.5
 182    7:30   74.0    47   15.5   186     23.5   832.6    0.00     378    80.5
 182    7:40   75.8    45   13.4   185     19.9   832.5    0.00     467    80.5
 182    7:50   76.8    43   11.6   176     17.5   832.3    0.00     467    80.6
 182    8:00   77.9    40   10.7   172     14.4   832.2    0.00     380    80.6
 182    8:10   78.5    40    9.0   164     13.9   832.2    0.00     395    80.7
 182    8:20   79.9    37    7.1   187     12.3   832.1    0.00     434    80.8
 182    8:30   80.5    35    9.0   315     16.4   832.0    0.00     304    80.9
 182    8:40   79.4    36    8.8   327     14.3   832.0    0.00     614    81.1
 182    8:50   81.2    35    6.7   337     11.3   832.1    0.00     698    81.3
 182    9:00   81.6    34    6.1   354     10.8   832.0    0.00     704    81.3
 182    9:10   82.5    33    5.0   352      9.5   831.9    0.00     805    81.5
 182    9:20   83.8    31    4.7     4      9.3   831.7    0.00     797    81.8
 182    9:30   84.0    30    5.5   350     10.2   831.7    0.00     833    82.0
 182    9:40   84.8    29    3.6    12      9.1   831.6    0.00     890    82.4
 182    9:50   85.3    28    4.9   334     15.0   831.6    0.00     797    82.8
 182   10:00   86.4    27    4.3    58      8.7   831.6    0.00     937    83.2
 182   10:10   86.6    27    4.8    77      8.0   831.5    0.00     947    83.7
 182   10:20   87.4    26    4.8    42      8.2   831.4    0.00     827    84.1
 182   10:30   87.5    26    4.0   345      9.3   831.4    0.00     985    84.7
 182   10:40   87.3    26    3.5   356      7.5   831.4    0.00     543    85.1
 182   10:50   87.3    26    5.3    47      9.1   831.4    0.00     573    85.6
 182   11:00   87.3    26    3.5    82      8.4   831.3    0.00     763    86.2
 182   11:10   88.5    24    2.7   213      6.6   831.2    0.00     928    86.7
 182   11:20   89.5    24    5.4   340      9.0   831.0    0.00     824    87.0
 182   11:30   88.7    24    3.2    17     13.0   831.0    0.00     576    87.4
 182   11:40   89.4    23    2.7    26      6.3   830.9    0.00     746    87.9
 182   11:50   90.8    22    4.1   320      9.4   830.8    0.00    1063    88.2
 182   12:00   91.0    22    5.4   318      9.9   830.7    0.00    1035    88.6
 182   12:10   92.1    22    5.3   286     10.0   830.6    0.00    1039    88.9
 182   12:20   92.4    21    3.7   277      8.4   830.5    0.00    1049    89.2
 182   12:30   92.2    22    4.3   316     10.0   830.4    0.00    1015    89.8
 182   12:40   92.2    21    4.5   358      9.2   830.2    0.00     997    90.2
 182   12:50   92.9    21    2.6   346      6.0   830.2    0.00     949    90.6
 182   13:00   93.2    22    3.1    38      7.2   830.0    0.00     943    91.0
 182   13:10   93.2    21    4.7   332     10.3   829.8    0.00     973    91.6
 182   13:20   92.8    22    4.7   355     10.7   829.7    0.00     942    91.7
 182   13:30   93.4    22    2.9   166      7.2   829.6    0.00     930    92.1
 182   13:40   94.4    21    3.8   240     10.3   829.4    0.00     933    92.1
 182   13:50   94.9    21    3.6   252      9.9   829.4    0.00     842    92.5
 182   14:00   95.4    21    3.1   249      7.9   829.2    0.00     789    92.6
 182   14:10   93.6    22    7.3   187     13.4   829.0    0.00     616    92.8
 182   14:20   94.3    21    6.3   218     14.7   828.8    0.00     906    93.1
 182   14:30   95.4    20    9.1   214     16.7   828.6    0.00     892    93.3
 182   14:40   94.7    21    8.7   182     17.8   828.4    0.00     824    93.5
 182   14:50   94.6    21    7.0   198     15.6   828.3    0.00     784    93.7
 182   15:00   95.1    20    8.4   180     16.1   828.2    0.00     780    93.9
 182   15:10   94.4    21    6.4   206     15.0   828.3    0.00     796    93.7
 182   15:20   94.9    20    7.7   186     13.7   828.1    0.00     766    94.0
 182   15:30   95.2    20    7.2   231     14.7   828.0    0.00     785    94.1
 182   15:40   94.5    20   10.2   190     18.5   827.9    0.00     509    94.3
 182   15:50   93.7    20    7.3   207     16.7   827.8    0.00     391    94.5
 182   16:00   95.0    20    8.2   178     15.1   827.7    0.00     764    94.5
 182   16:10   94.5    20    7.2   141     12.6   827.6    0.00     712    94.3
 182   16:20   93.9    20    5.5   162     10.8   827.4    0.00     280    94.5
 182   16:30   92.1    21    4.3   128     10.2   827.6    0.00      96    94.4
 182   16:40   91.2    20    5.2   345     17.1   827.8    0.00      68    94.3
 182   16:50   89.0    20    9.8   343     17.3   827.9    0.00      42    94.2
 182   17:00   89.0    18    4.9     3      9.6   828.1    0.00      26    94.2
 182   17:10   89.1    18    6.0    26     10.7   828.5    0.00      19    94.0
 182   17:20   87.1    24   10.2    40     20.0   828.7    0.00      18    94.0
 182   17:30   85.6    27    8.8    32     15.3   828.8    0.00      15    93.9
 182   17:40   79.2    46    9.7     9     19.1   829.0    0.02      15    93.5
 182   17:50   77.6    48    4.6     6      9.1   829.1    0.00      17    93.3
 182   18:00   77.1    52    5.0   232      8.6   829.1    0.00      18    93.2
 182   18:10   77.7    44    3.2   242      5.6   829.1    0.00      18    92.9
 182   18:20   78.6    45    1.7   272      3.7   829.1    0.00      19    92.6
 182   18:30   78.9    45    1.1   185      2.8   829.2    0.00      18    92.2
 182   18:40   79.3    46    2.2   164      3.1   829.4    0.00      15    91.9
 182   18:50   79.2    46    3.4   316      8.8   829.5    0.00      12    91.4
 182   19:00   78.4    50    1.8   256      5.4   829.5    0.00       9    91.3
 182   19:10   77.9    46    2.5   257      4.2   829.5    0.00       4    91.0
 182   19:20   79.2    42    5.8   316      8.8   829.7    0.00       2    90.6
 182   19:30   78.2    41    7.4   309     11.3   829.9    0.00       0    90.3
 182   19:40   76.6    46    5.8   339     11.5   830.2    0.00       0    89.9
 182   19:50   75.7    49    4.6   302      6.8   830.5    0.00       0    89.7
 182   20:00   74.6    50    2.8   273      4.0   830.6    0.00       0    89.4
 182   20:10   73.9    51    5.1   286      8.4   830.8    0.00       0    89.1
 182   20:20   74.3    47    6.2   300     11.4   831.0    0.00       0    88.9
 182   20:30   75.7    44    6.6   292     13.4   831.1    0.00       0    88.5
 182   20:40   75.1    44    5.9   295      9.1   831.3    0.00       0    88.3
 182   20:50   75.1    45    3.0   304      5.7   831.4    0.00       0    88.0
 182   21:00   74.9    46    3.4   301      4.5   831.6    0.00       0    87.7
 182   21:10   74.4    48    3.7   300      6.1   831.5    0.00       0    87.5
 182   21:20   73.5    49    4.2   297      5.8   831.4    0.00       0    87.3
 182   21:30   74.0    47    4.6   336      8.0   831.4    0.00       0    87.0
 182   21:40   74.7    42    5.9   342      9.4   831.6    0.00       0    86.8
 182   21:50   75.1    43    5.3   316      7.7   831.5    0.00       0    86.6
 182   22:00   73.8    47    5.0    19      8.7   831.8    0.00       0    86.3
 182   22:10   74.0    45    5.5     5     12.6   832.1    0.00       0    86.1
 182   22:20   75.8    41    6.1   354     10.4   832.1    0.00       0    85.9
 182   22:30   75.1    43    7.6   340     15.6   832.0    0.00       0    85.7
 182   22:40   74.6    45    7.1   321     10.6   832.0    0.00       0    85.5
 182   22:50   74.1    46    5.8   316      9.6   832.0    0.00       0    85.3
 182   23:00   74.0    46    3.9   310      7.3   832.0    0.00       0    85.1
 182   23:10   74.3    44    4.8   327      8.0   831.9    0.00       0    84.9
 182   23:20   74.6    43    5.3   329     10.2   831.8    0.00       0    84.7
 182   23:30   74.2    44    4.6   326      7.3   831.7    0.00       0    84.5
 182   23:40   73.8    45    1.9   304      5.0   831.7    0.00       0    84.4
 182   23:50   73.3    45    1.6   323      7.9   832.0    0.00       0    84.1
 183    0:00   73.4    44    2.2    86      4.4   832.3    0.00       0    83.9
 183    0:10   73.9    42    3.2    66      5.4   832.4    0.00       0    83.8
 183    0:20   74.1    42    3.8    38      8.0   832.3    0.00       0    83.6
 183    0:30   74.5    41    4.9    52      8.6   832.3    0.00       0    83.5
 183    0:40   74.5    41    3.6    72      8.2   832.3    0.00       0    83.3
 183    0:50   74.7    40    6.0    54     10.8   832.2    0.00       0    83.2
 183    1:00   75.0    40    7.1    67     11.2   832.1    0.00       0    83.2
 183    1:10   74.8    40    5.2    60      8.4   832.1    0.00       0    83.0
 183    1:20   74.5    41    3.7    62      5.6   832.0    0.00       0    82.9
 183    1:30   74.4    41    2.8    91      5.3   831.9    0.00       0    82.7
 183    1:40   74.4    41    3.8   104      6.2   831.8    0.00       0    82.6
 183    1:50   74.5    40    4.6   135      7.1   831.8    0.00       0    82.5
 183    2:00   74.5    41    3.3   160      6.9   831.7    0.00       0    82.4
 183    2:10   74.5    40    2.2   242      5.1   831.1    0.00       0    82.3
 183    2:20   74.4    40    2.6   280      5.6   830.8    0.00       0    82.2
 183    2:30   74.1    41    0.8   316      3.1   831.0    0.00       0    82.1
 183    2:40   73.7    42    5.1   326      9.1   830.9    0.00       0    82.0
 183    2:50   73.3    43    4.3   317      9.6   831.3    0.00       0    81.9
 183    3:00   72.4    45    6.0   318      8.7   831.3    0.00       0    81.8
 183    3:10   71.7    48    3.1   322      6.5   831.5    0.00       0    81.8
 183    3:20   71.0    50    1.6   300      3.5   831.6    0.00       0    81.7
 183    3:30   70.1    50    2.5   212      3.8   831.5    0.00       0    81.6
 183    3:40   70.4    48    1.3   131      3.4   831.6    0.00       0    81.5
 183    3:50   70.4    49    2.3   117      3.4   831.8    0.00       0    81.4
 183    4:00   70.3    47    2.4   111      4.7   831.9    0.00       0    81.3
 183    4:10   70.8    45    1.8   122      5.1   832.0    0.00       0    81.2
 183    4:20   70.9    46    1.8   132      3.7   831.8    0.00       0    81.1
 183    4:30   70.8    46    0.8   156      2.3   831.8    0.00       0    81.0
 183    4:40   70.7    46    1.3   100      3.1   832.0    0.00       1    80.9
 183    4:50   71.1    44    3.1    85      4.5   832.1    0.00       5    80.8
 183    5:00   71.4    44    1.7   101      2.9   832.1    0.00      14    80.7

Return to Goldfield, Nevada graphs page.


Western Regional Climate Center,wrcc@dri.edu